.
WxDataArchive / Data Records for 2014-06-14
2014-06-13 June 2014 2014-06-15

Data Records for Saturday, 14 June 2014

Time	Temp	Chill	HIndex	Humid	Dewpt	 Wind 	HiWind	WindDir	Rain 	Barom
-----	----	-----	------	-----	-----	------	------	-------	-----	-----
00:00	52.0	52.0	52.0	71	42.9	0	0	---	0.00	30.039 
00:05	51.9	51.9	51.9	72	43.2	0	0	---	0.00	30.039 
00:10	51.7	51.7	51.7	73	43.3	0	0	---	0.00	30.039 
00:15	51.4	51.4	51.4	74	43.4	0	0	---	0.00	30.037 
00:20	51.1	51.1	51.1	75	43.5	0	0	---	0.00	30.037 
00:25	51.0	51.0	51.0	76	43.7	0	0	---	0.00	30.037 
00:30	50.8	50.8	50.8	77	43.9	0	0	---	0.00	30.039 
00:35	50.5	50.5	50.5	77	43.6	0	0	---	0.00	30.039 
00:40	50.4	50.4	50.4	78	43.8	0	0	---	0.00	30.039 
00:45	50.1	50.1	50.1	78	43.5	0	0	---	0.00	30.042 
00:50	49.9	49.9	49.9	79	43.6	0	0	---	0.00	30.042 
00:55	49.8	49.8	49.8	79	43.6	0	0	---	0.00	30.042 
01:00	49.6	49.6	49.6	80	43.7	0	0	---	0.00	30.040 
01:05	49.5	49.5	49.5	81	43.9	0	0	---	0.00	30.040 
01:10	49.4	49.4	49.4	81	43.8	0	0	---	0.00	30.040 
01:15	49.2	49.2	49.2	82	43.9	0	0	---	0.00	30.037 
01:20	49.1	49.1	49.1	82	43.8	0	0	---	0.00	30.037 
01:25	48.9	48.9	48.9	83	44.0	0	0	---	0.00	30.037 
01:30	48.8	48.8	48.8	84	44.2	0	0	---	0.00	30.038 
01:35	48.6	48.6	48.6	84	44.0	0	0	---	0.00	30.038 
01:40	48.5	48.5	48.5	85	44.2	0	0	---	0.00	30.038 
01:45	48.5	48.5	48.5	85	44.2	0	0	---	0.00	30.039 
01:50	48.3	48.3	48.3	85	44.0	0	0	---	0.00	30.039 
01:55	48.2	48.2	48.2	85	43.9	0	0	---	0.00	30.039 
02:00	48.0	48.0	48.0	85	43.7	0	0	---	0.00	30.042 
02:05	48.0	48.0	48.0	86	44.0	0	0	---	0.00	30.042 
02:10	47.9	47.9	47.9	86	43.9	0	0	---	0.00	30.042 
02:15	47.7	47.7	47.7	86	43.7	0	0	---	0.00	30.041 
02:20	47.7	47.7	47.7	86	43.7	0	0	---	0.00	30.041 
02:25	47.7	47.7	47.7	87	44.0	0	0	---	0.00	30.041 
02:30	47.6	47.6	47.6	87	43.9	0	0	---	0.00	30.038 
02:35	47.6	47.6	47.6	87	43.9	0	0	---	0.00	30.038 
02:40	47.4	47.4	47.4	87	43.7	0	0	---	0.00	30.038 
02:45	47.3	47.3	47.3	87	43.6	0	0	---	0.00	30.038 
02:50	47.3	47.3	47.3	88	43.9	0	0	---	0.00	30.038 
02:55	47.1	47.1	47.1	88	43.7	0	0	---	0.00	30.038 
03:00	47.1	47.1	47.1	88	43.7	0	0	---	0.00	30.040 
03:05	47.0	47.0	47.0	88	43.6	0	0	---	0.00	30.040 
03:10	47.0	47.0	47.0	88	43.6	0	0	---	0.00	30.040 
03:15	46.8	46.8	46.8	88	43.4	0	0	---	0.00	30.037 
03:20	46.8	46.8	46.8	89	43.7	0	0	---	0.00	30.037 
03:25	46.8	46.8	46.8	89	43.7	0	0	---	0.00	30.037 
03:30	46.7	46.7	46.7	89	43.6	0	0	---	0.00	30.040 
03:35	46.5	46.5	46.5	89	43.4	0	0	---	0.00	30.040 
03:40	46.5	46.5	46.5	89	43.4	0	0	---	0.00	30.040 
03:45	46.4	46.4	46.4	89	43.3	0	0	---	0.00	30.039 
03:50	46.4	46.4	46.4	89	43.3	0	0	---	0.00	30.039 
03:55	46.4	46.4	46.4	90	43.6	0	0	---	0.00	30.039 
04:00	46.2	46.2	46.2	90	43.4	0	0	---	0.00	30.050 
04:05	46.2	46.2	46.2	90	43.4	0	0	---	0.00	30.050 
04:10	46.2	46.2	46.2	90	43.4	0	0	---	0.00	30.050 
04:15	46.1	46.1	46.1	90	43.3	0	0	---	0.00	30.055 
04:20	46.1	46.1	46.1	90	43.3	0	0	---	0.00	30.055 
04:25	46.1	46.1	46.1	90	43.3	0	0	---	0.00	30.055 
04:30	46.0	46.0	46.0	90	43.2	0	0	---	0.00	30.057 
04:35	46.0	46.0	46.0	90	43.2	0	0	---	0.00	30.057 
04:40	46.0	46.0	46.0	90	43.2	0	0	---	0.00	30.057 
04:45	45.8	45.8	45.8	90	43.0	0	0	---	0.00	30.063 
04:50	45.8	45.8	45.8	90	43.0	0	0	---	0.00	30.063 
04:55	45.8	45.8	45.8	91	43.3	0	0	---	0.00	30.063 
05:00	45.7	45.7	45.7	91	43.2	0	0	---	0.00	30.071 
05:05	45.7	45.7	45.7	91	43.2	0	0	---	0.00	30.071 
05:10	45.7	45.7	45.7	91	43.2	0	0	---	0.00	30.071 
05:15	45.5	45.5	45.5	91	43.0	0	0	---	0.00	30.077 
05:20	45.4	45.4	45.4	91	42.9	0	0	---	0.00	30.077 
05:25	45.4	45.4	45.4	91	42.9	0	0	---	0.00	30.077 
05:30	45.4	45.4	45.4	91	42.9	0	0	---	0.00	30.074 
05:35	45.4	45.4	45.4	91	42.9	0	0	---	0.00	30.074 
05:40	45.2	45.2	45.2	91	42.7	0	0	---	0.00	30.074 
05:45	45.2	45.2	45.2	91	42.7	0	0	---	0.00	30.075 
05:50	45.2	45.2	45.2	91	42.7	0	0	---	0.00	30.075 
05:55	45.1	45.1	45.1	92	42.9	0	0	---	0.00	30.075 
06:00	45.1	45.1	45.1	92	42.9	0	0	---	0.00	30.076 
06:05	44.9	44.9	44.9	92	42.7	0	0	---	0.00	30.076 
06:10	44.9	44.9	44.9	92	42.7	0	0	---	0.00	30.076 
06:15	44.8	44.8	44.8	92	42.6	0	0	---	0.00	30.087 
06:20	44.8	44.8	44.8	92	42.6	0	0	---	0.00	30.087 
06:25	44.8	44.8	44.8	92	42.6	0	0	---	0.00	30.087 
06:30	44.8	44.8	44.8	92	42.6	0	0	---	0.00	30.093 
06:35	44.8	44.8	44.8	92	42.6	0	0	---	0.00	30.093 
06:40	44.8	44.8	44.8	92	42.6	0	0	---	0.00	30.093 
06:45	44.9	44.9	44.9	92	42.7	0	0	---	0.00	30.093 
06:50	45.2	45.2	45.2	92	43.0	0	0	---	0.00	30.093 
06:55	45.4	45.4	45.4	92	43.2	0	0	---	0.00	30.093 
07:00	45.5	45.5	45.5	93	43.6	0	0	---	0.00	30.094 
07:05	45.8	45.8	45.8	93	43.9	0	0	---	0.00	30.094 
07:10	46.0	46.0	46.0	93	44.1	0	0	---	0.00	30.094 
07:15	46.2	46.2	46.2	93	44.3	0	0	---	0.00	30.092 
07:20	47.0	47.0	47.0	93	45.1	0	0	---	0.00	30.092 
07:25	47.6	47.6	47.6	93	45.7	0	0	---	0.00	30.092 
07:30	48.3	48.3	48.3	93	46.4	0	0	---	0.00	30.100 
07:35	48.9	48.9	48.9	93	47.0	0	0	---	0.00	30.100 
07:40	49.8	49.8	49.8	93	47.9	0	0	---	0.00	30.100 
07:45	50.7	50.7	50.7	92	48.5	0	0	---	0.00	30.095 
07:50	51.7	51.7	51.7	92	49.5	0	0	---	0.00	30.095 
07:55	52.8	52.8	52.8	90	49.9	0	0	---	0.00	30.095 
08:00	53.6	53.6	53.6	89	50.4	0	0	---	0.00	30.097 
08:05	55.0	55.0	55.0	84	50.3	0	0	---	0.00	30.097 
08:10	55.9	55.9	55.9	80	49.8	0	0	---	0.00	30.097 
08:15	56.6	56.6	56.6	77	49.5	0	0	---	0.00	30.102 
08:20	57.3	57.3	57.3	72	48.3	0	0	---	0.00	30.102 
08:25	58.0	58.0	58.0	69	47.9	0	0	---	0.00	30.102 
08:30	58.6	58.6	58.6	67	47.7	0	0	---	0.00	30.106 
08:35	59.2	59.2	59.2	65	47.4	0	0	---	0.00	30.106 
08:40	59.9	59.9	59.9	64	47.7	0	0	---	0.00	30.106 
08:45	61.0	61.0	61.0	64	48.7	0	0	---	0.00	30.102 
08:50	61.8	61.8	61.8	56	45.9	0	1	292	0.00	30.102 
08:55	62.6	62.6	62.6	57	47.1	0	1	292	0.00	30.102 
09:00	63.1	63.1	63.1	54	46.2	0	1	292	0.00	30.106 
09:05	63.5	63.5	63.5	54	46.6	0	0	---	0.00	30.106 
09:10	64.2	64.2	64.2	53	46.7	0	1	292	0.00	30.106 
09:15	64.7	64.7	64.7	50	45.6	0	1	292	0.00	30.111 
09:20	64.7	64.7	64.7	51	46.1	0	1	292	0.00	30.111 
09:25	64.5	64.5	64.5	52	46.5	0	1	292	0.00	30.111 
09:30	64.7	64.7	64.7	50	45.6	0	2	292	0.00	30.115 
09:35	64.7	64.7	64.7	51	46.1	0	1	292	0.00	30.115 
09:40	64.5	64.5	64.5	51	46.0	1	2	292	0.00	30.115 
09:45	64.3	64.3	64.3	49	44.7	1	3	292	0.00	30.125 
09:50	64.5	64.5	64.5	48	44.4	0	2	292	0.00	30.125 
09:55	64.8	64.8	64.8	47	44.1	0	2	292	0.00	30.125 
10:00	65.6	65.6	65.6	46	44.3	0	1	292	0.00	30.121 
10:05	66.0	66.0	66.0	46	44.6	0	2	292	0.00	30.121 
10:10	66.1	66.1	66.1	43	42.9	0	2	292	0.00	30.121 
10:15	66.4	66.4	66.4	40	41.3	0	2	292	0.00	30.128 
10:20	66.6	66.6	66.6	42	42.8	0	1	292	0.00	30.128 
10:25	67.6	67.6	67.6	40	42.4	0	1	292	0.00	30.128 
10:30	68.4	68.4	68.4	38	41.8	1	3	315	0.00	30.124 
10:35	68.9	68.9	68.9	40	43.6	1	4	68	0.00	30.124 
10:40	68.6	68.6	68.6	39	42.6	0	2	68	0.00	30.124 
10:45	68.8	68.8	68.8	38	42.1	0	1	68	0.00	30.123 
10:50	69.1	69.1	69.1	33	38.8	1	5	68	0.00	30.123 
10:55	69.4	69.4	69.4	37	42.0	1	2	68	0.00	30.123 
11:00	69.4	69.4	69.4	35	40.6	1	5	68	0.00	30.125 
11:05	69.3	69.3	69.3	36	41.2	1	3	68	0.00	30.125 
11:10	69.8	69.8	69.8	36	41.6	1	4	68	0.00	30.125 
11:15	69.8	69.8	69.8	33	39.4	1	4	45	0.00	30.123 
11:20	69.8	69.8	69.8	33	39.4	0	3	45	0.00	30.123 
11:25	69.8	69.8	69.8	37	42.3	1	3	45	0.00	30.123 
11:30	69.4	69.4	69.4	36	41.3	1	2	45	0.00	30.122 
11:35	70.1	70.1	70.1	35	41.2	0	1	45	0.00	30.122 
11:40	70.8	70.8	70.8	35	41.8	1	3	45	0.00	30.122 
11:45	71.3	71.3	71.3	35	42.2	0	2	45	0.00	30.118 
11:50	71.6	71.6	71.6	36	43.2	0	4	90	0.00	30.118 
11:55	71.8	71.8	71.8	39	45.5	0	2	90	0.00	30.118 
12:00	72.0	72.0	72.0	36	43.6	0	2	90	0.00	30.121 
12:05	71.8	71.8	71.8	38	44.8	0	2	90	0.00	30.121 
12:10	71.6	71.6	71.6	35	42.5	0	1	90	0.00	30.121 
12:15	71.8	71.8	71.8	32	40.3	0	2	90	0.00	30.125 
12:20	71.8	71.8	71.8	38	44.8	0	1	90	0.00	30.125 
12:25	72.5	72.5	72.5	33	41.7	1	3	90	0.00	30.125 
12:30	73.2	73.2	73.2	33	42.4	0	2	90	0.00	30.126 
12:35	73.2	73.2	73.2	36	44.6	1	4	90	0.00	30.126 
12:40	72.5	72.5	72.5	35	43.3	1	3	90	0.00	30.126 
12:45	72.0	72.0	72.0	33	41.3	0	3	68	0.00	30.126 
12:50	72.1	72.1	72.1	35	42.9	1	4	68	0.00	30.126 
12:55	72.3	72.3	72.3	31	40.0	0	1	68	0.00	30.126 
13:00	72.8	72.8	72.8	33	42.0	1	3	68	0.00	30.118 
13:05	72.8	72.8	72.8	38	45.7	0	1	68	0.00	30.118 
13:10	73.2	73.2	73.2	33	42.4	1	3	292	0.00	30.118 
13:15	73.3	73.3	73.3	31	40.8	2	4	90	0.00	30.114 
13:20	73.5	73.5	73.5	35	44.2	0	3	90	0.00	30.114 
13:25	73.7	73.7	73.7	33	42.8	1	5	90	0.00	30.114 
13:30	73.9	73.9	73.9	34	43.7	0	2	90	0.00	30.111 
13:35	73.9	73.9	73.9	30	40.5	1	5	90	0.00	30.111 
13:40	74.0	74.0	74.0	32	42.3	1	4	90	0.00	30.111 
13:45	74.2	74.2	74.2	33	43.2	1	4	90	0.00	30.099 
13:50	74.6	74.6	74.6	36	45.9	1	4	90	0.00	30.099 
13:55	74.4	74.4	74.4	35	44.9	2	4	90	0.00	30.099 
14:00	74.2	74.2	74.2	33	43.2	1	3	90	0.00	30.096 
14:05	74.6	74.6	74.6	34	44.4	0	2	90	0.00	30.096 
14:10	75.1	75.1	77.0	31	42.4	0	1	90	0.00	30.096 
14:15	75.1	75.1	76.9	29	40.7	1	3	90	0.00	30.090 
14:20	75.3	75.3	77.0	30	41.7	0	2	90	0.00	30.090 
14:25	75.8	75.8	77.6	36	46.9	0	1	90	0.00	30.090 
14:30	76.0	76.0	77.5	34	45.6	1	4	90	0.00	30.082 
14:35	76.0	76.0	77.4	32	44.0	1	4	90	0.00	30.082 
14:40	75.8	75.8	77.1	28	40.4	1	6	90	0.00	30.082 
14:45	75.6	75.6	76.9	27	39.2	1	2	90	0.00	30.082 
14:50	75.8	75.8	77.2	30	42.1	0	2	90	0.00	30.082 
14:55	75.4	75.4	77.1	30	41.8	2	5	68	0.00	30.082 
15:00	75.3	75.3	77.0	29	40.8	1	3	68	0.00	30.081 
15:05	75.1	75.1	77.2	33	44.0	2	4	68	0.00	30.081 
15:10	75.3	75.3	77.2	32	43.4	0	2	68	0.00	30.081 
15:15	75.8	75.8	77.3	31	43.0	1	3	68	0.00	30.080 
15:20	76.3	76.3	77.5	32	44.3	0	2	68	0.00	30.080 
15:25	76.3	76.3	77.2	28	40.8	2	4	68	0.00	30.080 
15:30	76.0	76.0	77.1	28	40.5	1	4	68	0.00	30.079 
15:35	75.6	75.6	77.0	28	40.2	1	3	68	0.00	30.079 
15:40	75.3	75.3	77.2	32	43.4	0	2	45	0.00	30.079 
15:45	75.8	75.8	77.5	34	45.4	0	1	45	0.00	30.071 
15:50	76.5	76.5	77.4	29	41.9	0	1	45	0.00	30.071 
15:55	77.4	77.4	77.8	29	42.6	0	2	45	0.00	30.071 
16:00	77.7	77.7	78.0	31	44.6	1	4	45	0.00	30.065 
16:05	77.4	77.4	77.7	28	41.7	1	4	68	0.00	30.065 
16:10	77.2	77.2	77.6	27	40.6	0	2	68	0.00	30.065 
16:15	77.4	77.4	77.6	27	40.8	1	2	68	0.00	30.066 
16:20	77.4	77.4	77.7	28	41.7	0	2	68	0.00	30.066 
16:25	77.4	77.4	77.9	31	44.4	0	2	68	0.00	30.066 
16:30	77.2	77.2	77.6	28	41.6	1	3	68	0.00	30.062 
16:35	76.7	76.7	77.4	28	41.1	2	5	68	0.00	30.062 
16:40	76.7	76.7	77.3	26	39.2	1	4	90	0.00	30.062 
16:45	77.2	77.2	77.5	26	39.6	0	2	90	0.00	30.060 
16:50	77.7	77.7	77.6	25	39.1	0	2	90	0.00	30.060 
16:55	77.9	77.9	77.9	27	41.2	0	1	90	0.00	30.060 
17:00	78.1	78.1	77.9	26	40.4	0	1	90	0.00	30.056 
17:05	78.1	78.1	77.8	25	39.4	0	2	90	0.00	30.056 
17:10	78.1	78.1	77.8	25	39.4	1	3	90	0.00	30.056 
17:15	78.1	78.1	78.0	27	41.4	0	2	90	0.00	30.052 
17:20	77.9	77.9	77.8	26	40.2	1	3	315	0.00	30.052 
17:25	77.9	77.9	77.9	27	41.2	1	3	90	0.00	30.052 
17:30	77.7	77.7	77.6	25	39.1	1	2	90	0.00	30.051 
17:35	77.7	77.7	77.6	25	39.1	0	2	90	0.00	30.051 
17:40	77.7	77.7	77.8	27	41.0	0	1	90	0.00	30.051 
17:45	77.7	77.7	77.8	27	41.0	0	2	90	0.00	30.052 
17:50	77.7	77.7	77.8	28	42.0	0	2	90	0.00	30.052 
17:55	77.6	77.6	77.7	27	41.0	0	1	90	0.00	30.052 
18:00	77.4	77.4	77.7	28	41.7	0	1	90	0.00	30.051 
18:05	77.2	77.2	77.7	29	42.5	0	1	90	0.00	30.051 
18:10	77.0	77.0	77.5	28	41.4	0	1	90	0.00	30.051 
18:15	76.8	76.8	77.5	29	42.1	0	1	90	0.00	30.058 
18:20	76.8	76.8	77.5	29	42.1	0	1	90	0.00	30.058 
18:25	76.7	76.7	77.4	28	41.1	0	2	90	0.00	30.058 
18:30	76.7	76.7	77.5	29	42.0	0	1	90	0.00	30.051 
18:35	76.5	76.5	77.3	28	41.0	0	1	90	0.00	30.051 
18:40	76.3	76.3	77.3	29	41.7	0	2	90	0.00	30.051 
18:45	76.3	76.3	77.2	28	40.8	0	1	90	0.00	30.050 
18:50	76.1	76.1	77.2	28	40.6	0	1	90	0.00	30.050 
18:55	76.0	76.0	77.2	29	41.4	0	2	90	0.00	30.050 
19:00	75.8	75.8	77.1	29	41.3	0	2	90	0.00	30.050 
19:05	75.8	75.8	77.1	29	41.3	0	2	90	0.00	30.050 
19:10	75.6	75.6	77.2	31	42.8	1	2	90	0.00	30.050 
19:15	75.4	75.4	77.1	30	41.8	0	1	90	0.00	30.045 
19:20	75.3	75.3	76.9	28	39.9	0	2	90	0.00	30.045 
19:25	75.3	75.3	77.0	29	40.8	0	2	68	0.00	30.045 
19:30	75.3	75.3	77.0	30	41.7	0	1	68	0.00	30.043 
19:35	75.1	75.1	76.9	29	40.7	0	2	68	0.00	30.043 
19:40	75.1	75.1	76.9	29	40.7	0	1	68	0.00	30.043 
19:45	74.9	74.9	74.9	27	38.7	0	2	68	0.00	30.045 
19:50	74.9	74.9	74.9	28	39.6	0	1	68	0.00	30.045 
19:55	74.7	74.7	74.7	28	39.4	0	1	68	0.00	30.045 
20:00	74.6	74.6	74.6	28	39.3	0	1	68	0.00	30.042 
20:05	74.6	74.6	74.6	28	39.3	0	1	68	0.00	30.042 
20:10	74.4	74.4	74.4	27	38.2	0	1	90	0.00	30.042 
20:15	74.4	74.4	74.4	27	38.2	0	1	90	0.00	30.027 
20:20	74.2	74.2	74.2	28	39.0	0	0	---	0.00	30.027 
20:25	73.9	73.9	73.9	30	40.5	0	1	90	0.00	30.027 
20:30	73.7	73.7	73.7	30	40.3	0	0	---	0.00	30.026 
20:35	73.5	73.5	73.5	32	41.8	0	0	---	0.00	30.026 
20:40	73.2	73.2	73.2	32	41.6	0	0	---	0.00	30.026 
20:45	72.7	72.7	72.7	35	43.5	0	0	---	0.00	30.023 
20:50	72.1	72.1	72.1	35	42.9	0	0	---	0.00	30.023 
20:55	71.6	71.6	71.6	36	43.2	0	0	---	0.00	30.023 
21:00	71.3	71.3	71.3	38	44.4	0	0	---	0.00	30.022 
21:05	70.6	70.6	70.6	38	43.7	0	0	---	0.00	30.022 
21:10	70.1	70.1	70.1	39	44.0	0	0	---	0.00	30.022 
21:15	69.6	69.6	69.6	41	44.8	0	0	---	0.00	30.021 
21:20	69.1	69.1	69.1	42	45.0	0	0	---	0.00	30.021 
21:25	68.6	68.6	68.6	44	45.8	0	0	---	0.00	30.021 
21:30	67.9	67.9	67.9	46	46.3	0	0	---	0.00	30.024 
21:35	67.4	67.4	67.4	46	45.9	0	0	---	0.00	30.024 
21:40	66.9	66.9	66.9	47	46.0	0	0	---	0.00	30.024 
21:45	66.4	66.4	66.4	47	45.5	0	0	---	0.00	30.029 
21:50	66.1	66.1	66.1	47	45.3	0	0	---	0.00	30.029 
21:55	65.8	65.8	65.8	47	45.0	0	0	---	0.00	30.029 
22:00	65.5	65.5	65.5	50	46.4	0	0	---	0.00	30.034 
22:05	65.2	65.2	65.2	50	46.1	0	0	---	0.00	30.034 
22:10	64.8	64.8	64.8	50	45.7	0	0	---	0.00	30.034 
22:15	64.5	64.5	64.5	52	46.5	0	0	---	0.00	30.032 
22:20	64.2	64.2	64.2	54	47.2	0	0	---	0.00	30.032 
22:25	63.9	63.9	63.9	54	46.9	0	0	---	0.00	30.032 
22:30	63.4	63.4	63.4	54	46.5	0	0	---	0.00	30.034 
22:35	63.1	63.1	63.1	55	46.7	0	0	---	0.00	30.034 
22:40	62.7	62.7	62.7	55	46.3	0	0	---	0.00	30.034 
22:45	62.4	62.4	62.4	57	47.0	0	0	---	0.00	30.043 
22:50	62.1	62.1	62.1	57	46.7	0	0	---	0.00	30.043 
22:55	61.8	61.8	61.8	57	46.4	0	0	---	0.00	30.043 
23:00	61.5	61.5	61.5	58	46.6	0	0	---	0.00	30.043 
23:05	61.3	61.3	61.3	58	46.4	0	0	---	0.00	30.043 
23:10	61.0	61.0	61.0	59	46.6	0	0	---	0.00	30.043 
23:15	60.7	60.7	60.7	60	46.7	0	0	---	0.00	30.043 
23:20	60.5	60.5	60.5	61	47.0	0	0	---	0.00	30.043 
23:25	60.2	60.2	60.2	62	47.1	0	0	---	0.00	30.043 
23:30	60.1	60.1	60.1	63	47.5	0	0	---	0.00	30.041 
23:35	59.8	59.8	59.8	64	47.6	0	0	---	0.00	30.041 
23:40	59.6	59.6	59.6	64	47.4	0	0	---	0.00	30.041 
23:45	59.5	59.5	59.5	64	47.3	0	0	---	0.00	30.042 
23:50	59.3	59.3	59.3	64	47.1	0	0	---	0.00	30.042 
23:55	59.3	59.3	59.3	65	47.5	0	0	---	0.00	30.042 

CoCoRaHS
IN-AL-39
A2 Web Hosting
Creative Commons License
GoDaddy
search engine by freefind advanced

loaded 2018-11-15 14:27:48 • last modified 2010-11-18 10:43:29
Privacy PolicyDisclaimer
• wx.awcolley.com is powered by PmWiki v.2002016 •
• all content (unless otherwise noted) © 2018 A W Colley